sensor_id;sensor_type;location;lat;lon;timestamp;P1;durP1;ratioP1;P2;durP2;ratioP2
19107;SDS011;9686;48.832;9.126;2023-03-19T00:02:02;9.37;;;5.50;;
19107;SDS011;9686;48.832;9.126;2023-03-19T00:04:27;7.67;;;5.40;;
19107;SDS011;9686;48.832;9.126;2023-03-19T00:06:53;8.60;;;5.53;;
19107;SDS011;9686;48.832;9.126;2023-03-19T00:09:19;8.23;;;5.47;;
19107;SDS011;9686;48.832;9.126;2023-03-19T00:11:45;11.20;;;5.93;;
19107;SDS011;9686;48.832;9.126;2023-03-19T00:14:11;9.00;;;5.60;;
19107;SDS011;9686;48.832;9.126;2023-03-19T00:16:36;9.33;;;5.03;;
19107;SDS011;9686;48.832;9.126;2023-03-19T00:19:02;6.93;;;5.00;;
19107;SDS011;9686;48.832;9.126;2023-03-19T00:21:28;8.73;;;5.50;;
19107;SDS011;9686;48.832;9.126;2023-03-19T00:23:54;8.17;;;5.87;;
19107;SDS011;9686;48.832;9.126;2023-03-19T00:26:24;10.70;;;5.30;;
19107;SDS011;9686;48.832;9.126;2023-03-19T00:28:51;5.77;;;4.57;;
19107;SDS011;9686;48.832;9.126;2023-03-19T00:31:16;7.17;;;5.07;;
19107;SDS011;9686;48.832;9.126;2023-03-19T00:33:42;8.10;;;5.60;;
19107;SDS011;9686;48.832;9.126;2023-03-19T00:36:07;8.27;;;5.50;;
19107;SDS011;9686;48.832;9.126;2023-03-19T00:38:33;6.77;;;4.53;;
19107;SDS011;9686;48.832;9.126;2023-03-19T00:40:59;10.80;;;5.07;;
19107;SDS011;9686;48.832;9.126;2023-03-19T00:43:25;7.47;;;4.57;;
19107;SDS011;9686;48.832;9.126;2023-03-19T00:45:51;8.97;;;4.93;;
19107;SDS011;9686;48.832;9.126;2023-03-19T00:48:16;6.37;;;4.60;;
19107;SDS011;9686;48.832;9.126;2023-03-19T00:50:42;6.13;;;5.07;;
19107;SDS011;9686;48.832;9.126;2023-03-19T00:53:07;6.07;;;5.30;;
19107;SDS011;9686;48.832;9.126;2023-03-19T00:55:32;7.07;;;4.90;;
19107;SDS011;9686;48.832;9.126;2023-03-19T00:57:57;10.00;;;5.37;;
19107;SDS011;9686;48.832;9.126;2023-03-19T01:00:23;8.53;;;5.00;;
19107;SDS011;9686;48.832;9.126;2023-03-19T01:02:48;8.03;;;5.37;;
19107;SDS011;9686;48.832;9.126;2023-03-19T01:05:14;6.00;;;4.87;;
19107;SDS011;9686;48.832;9.126;2023-03-19T01:07:39;7.43;;;4.93;;
19107;SDS011;9686;48.832;9.126;2023-03-19T01:10:05;8.80;;;4.80;;
19107;SDS011;9686;48.832;9.126;2023-03-19T01:12:31;8.20;;;4.53;;
19107;SDS011;9686;48.832;9.126;2023-03-19T01:14:56;10.20;;;5.07;;
19107;SDS011;9686;48.832;9.126;2023-03-19T01:17:22;6.10;;;4.37;;
19107;SDS011;9686;48.832;9.126;2023-03-19T01:19:48;5.87;;;3.97;;
19107;SDS011;9686;48.832;9.126;2023-03-19T01:22:13;6.83;;;4.63;;
19107;SDS011;9686;48.832;9.126;2023-03-19T01:24:40;8.03;;;4.87;;
19107;SDS011;9686;48.832;9.126;2023-03-19T01:27:06;6.73;;;5.23;;
19107;SDS011;9686;48.832;9.126;2023-03-19T01:29:32;7.43;;;5.07;;
19107;SDS011;9686;48.832;9.126;2023-03-19T01:31:57;7.67;;;4.97;;
19107;SDS011;9686;48.832;9.126;2023-03-19T01:34:22;9.03;;;5.13;;
19107;SDS011;9686;48.832;9.126;2023-03-19T01:36:48;8.33;;;5.07;;
19107;SDS011;9686;48.832;9.126;2023-03-19T01:39:13;7.97;;;5.10;;
19107;SDS011;9686;48.832;9.126;2023-03-19T01:41:39;6.27;;;4.13;;
19107;SDS011;9686;48.832;9.126;2023-03-19T01:46:48;6.43;;;4.60;;
19107;SDS011;9686;48.832;9.126;2023-03-19T01:49:13;8.87;;;4.77;;
19107;SDS011;9686;48.832;9.126;2023-03-19T01:51:40;5.83;;;4.77;;
19107;SDS011;9686;48.832;9.126;2023-03-19T01:54:09;7.00;;;4.90;;
19107;SDS011;9686;48.832;9.126;2023-03-19T01:56:38;6.27;;;4.10;;
19107;SDS011;9686;48.832;9.126;2023-03-19T02:02:42;9.60;;;3.40;;
19107;SDS011;9686;48.832;9.126;2023-03-19T02:04:45;7.30;;;3.67;;
19107;SDS011;9686;48.832;9.126;2023-03-19T02:07:13;7.70;;;3.53;;
19107;SDS011;9686;48.832;9.126;2023-03-19T02:09:39;3.50;;;2.90;;
19107;SDS011;9686;48.832;9.126;2023-03-19T02:12:06;4.70;;;2.87;;
19107;SDS011;9686;48.832;9.126;2023-03-19T02:14:32;4.57;;;3.00;;
19107;SDS011;9686;48.832;9.126;2023-03-19T02:16:58;4.87;;;2.87;;
19107;SDS011;9686;48.832;9.126;2023-03-19T02:19:31;4.73;;;2.67;;
19107;SDS011;9686;48.832;9.126;2023-03-19T02:22:03;6.83;;;3.33;;
19107;SDS011;9686;48.832;9.126;2023-03-19T02:24:49;5.27;;;3.47;;
19107;SDS011;9686;48.832;9.126;2023-03-19T02:27:19;5.20;;;3.10;;
19107;SDS011;9686;48.832;9.126;2023-03-19T02:29:44;4.07;;;2.67;;
19107;SDS011;9686;48.832;9.126;2023-03-19T02:32:10;4.27;;;3.00;;
19107;SDS011;9686;48.832;9.126;2023-03-19T02:34:36;4.60;;;3.17;;
19107;SDS011;9686;48.832;9.126;2023-03-19T02:42:07;4.30;;;2.93;;
19107;SDS011;9686;48.832;9.126;2023-03-19T02:44:35;5.50;;;3.33;;
19107;SDS011;9686;48.832;9.126;2023-03-19T02:47:01;4.27;;;3.80;;
19107;SDS011;9686;48.832;9.126;2023-03-19T02:49:27;5.37;;;3.57;;
19107;SDS011;9686;48.832;9.126;2023-03-19T02:51:53;4.30;;;3.43;;
19107;SDS011;9686;48.832;9.126;2023-03-19T02:54:18;4.80;;;3.27;;
19107;SDS011;9686;48.832;9.126;2023-03-19T02:56:43;4.30;;;3.70;;
19107;SDS011;9686;48.832;9.126;2023-03-19T02:59:10;4.17;;;3.37;;
19107;SDS011;9686;48.832;9.126;2023-03-19T03:01:35;4.57;;;3.17;;
19107;SDS011;9686;48.832;9.126;2023-03-19T03:04:01;3.97;;;3.17;;
19107;SDS011;9686;48.832;9.126;2023-03-19T03:06:26;5.23;;;3.30;;
19107;SDS011;9686;48.832;9.126;2023-03-19T03:08:52;6.70;;;3.60;;
19107;SDS011;9686;48.832;9.126;2023-03-19T03:11:17;5.40;;;3.27;;
19107;SDS011;9686;48.832;9.126;2023-03-19T03:13:42;3.97;;;3.30;;
19107;SDS011;9686;48.832;9.126;2023-03-19T03:16:08;6.70;;;3.70;;
19107;SDS011;9686;48.832;9.126;2023-03-19T03:18:33;8.63;;;3.60;;
19107;SDS011;9686;48.832;9.126;2023-03-19T03:21:00;3.90;;;3.30;;
19107;SDS011;9686;48.832;9.126;2023-03-19T03:23:25;3.70;;;2.97;;
19107;SDS011;9686;48.832;9.126;2023-03-19T03:25:51;4.23;;;3.07;;
19107;SDS011;9686;48.832;9.126;2023-03-19T03:28:17;4.63;;;2.97;;
19107;SDS011;9686;48.832;9.126;2023-03-19T03:30:43;5.23;;;3.53;;
19107;SDS011;9686;48.832;9.126;2023-03-19T03:33:09;6.50;;;3.50;;
19107;SDS011;9686;48.832;9.126;2023-03-19T03:35:34;4.47;;;3.67;;
19107;SDS011;9686;48.832;9.126;2023-03-19T03:38:00;4.83;;;3.13;;
19107;SDS011;9686;48.832;9.126;2023-03-19T03:40:25;5.20;;;3.40;;
19107;SDS011;9686;48.832;9.126;2023-03-19T03:42:51;4.60;;;3.10;;
19107;SDS011;9686;48.832;9.126;2023-03-19T03:45:16;5.87;;;3.17;;
19107;SDS011;9686;48.832;9.126;2023-03-19T03:47:42;4.57;;;2.77;;
19107;SDS011;9686;48.832;9.126;2023-03-19T03:50:07;3.23;;;3.00;;
19107;SDS011;9686;48.832;9.126;2023-03-19T03:52:35;3.37;;;2.90;;
19107;SDS011;9686;48.832;9.126;2023-03-19T03:55:00;3.70;;;3.07;;
19107;SDS011;9686;48.832;9.126;2023-03-19T03:57:27;3.67;;;3.17;;
19107;SDS011;9686;48.832;9.126;2023-03-19T03:59:52;3.27;;;2.70;;
19107;SDS011;9686;48.832;9.126;2023-03-19T04:02:18;3.70;;;2.90;;
19107;SDS011;9686;48.832;9.126;2023-03-19T04:04:43;4.83;;;3.33;;
19107;SDS011;9686;48.832;9.126;2023-03-19T04:07:09;4.13;;;3.07;;
19107;SDS011;9686;48.832;9.126;2023-03-19T04:09:34;4.43;;;3.57;;
19107;SDS011;9686;48.832;9.126;2023-03-19T04:12:00;3.63;;;3.07;;
19107;SDS011;9686;48.832;9.126;2023-03-19T04:14:26;5.53;;;3.03;;
19107;SDS011;9686;48.832;9.126;2023-03-19T04:16:51;3.70;;;3.07;;
19107;SDS011;9686;48.832;9.126;2023-03-19T04:19:20;6.30;;;3.13;;
19107;SDS011;9686;48.832;9.126;2023-03-19T04:21:45;4.10;;;2.90;;
19107;SDS011;9686;48.832;9.126;2023-03-19T04:24:11;3.83;;;3.23;;
19107;SDS011;9686;48.832;9.126;2023-03-19T04:26:37;3.60;;;3.10;;
19107;SDS011;9686;48.832;9.126;2023-03-19T04:29:02;5.27;;;3.47;;
19107;SDS011;9686;48.832;9.126;2023-03-19T04:31:28;4.43;;;3.00;;
19107;SDS011;9686;48.832;9.126;2023-03-19T04:33:53;5.10;;;3.47;;
19107;SDS011;9686;48.832;9.126;2023-03-19T04:36:19;5.77;;;3.83;;
19107;SDS011;9686;48.832;9.126;2023-03-19T04:38:45;4.27;;;3.53;;
19107;SDS011;9686;48.832;9.126;2023-03-19T04:41:10;3.30;;;3.00;;
19107;SDS011;9686;48.832;9.126;2023-03-19T04:43:37;2.80;;;2.60;;
19107;SDS011;9686;48.832;9.126;2023-03-19T04:46:03;3.13;;;2.70;;
19107;SDS011;9686;48.832;9.126;2023-03-19T04:48:28;4.33;;;3.30;;
19107;SDS011;9686;48.832;9.126;2023-03-19T04:50:54;4.10;;;3.40;;
19107;SDS011;9686;48.832;9.126;2023-03-19T04:53:21;4.43;;;3.33;;
19107;SDS011;9686;48.832;9.126;2023-03-19T04:55:47;7.90;;;3.17;;
19107;SDS011;9686;48.832;9.126;2023-03-19T04:58:12;3.90;;;3.23;;
19107;SDS011;9686;48.832;9.126;2023-03-19T05:00:38;2.80;;;2.60;;
19107;SDS011;9686;48.832;9.126;2023-03-19T05:03:03;4.63;;;2.90;;
19107;SDS011;9686;48.832;9.126;2023-03-19T05:05:29;5.40;;;3.57;;
19107;SDS011;9686;48.832;9.126;2023-03-19T05:07:54;3.60;;;3.30;;
19107;SDS011;9686;48.832;9.126;2023-03-19T05:10:21;3.53;;;3.13;;
19107;SDS011;9686;48.832;9.126;2023-03-19T05:12:47;3.50;;;2.97;;
19107;SDS011;9686;48.832;9.126;2023-03-19T05:15:13;6.57;;;3.93;;
19107;SDS011;9686;48.832;9.126;2023-03-19T05:17:38;3.33;;;3.03;;
19107;SDS011;9686;48.832;9.126;2023-03-19T05:20:04;4.60;;;3.73;;
19107;SDS011;9686;48.832;9.126;2023-03-19T05:22:29;4.17;;;3.40;;
19107;SDS011;9686;48.832;9.126;2023-03-19T05:24:55;5.43;;;3.17;;
19107;SDS011;9686;48.832;9.126;2023-03-19T05:27:21;4.27;;;3.30;;
19107;SDS011;9686;48.832;9.126;2023-03-19T05:29:47;5.07;;;3.40;;
19107;SDS011;9686;48.832;9.126;2023-03-19T05:32:12;3.83;;;2.83;;
19107;SDS011;9686;48.832;9.126;2023-03-19T05:34:37;3.47;;;2.90;;
19107;SDS011;9686;48.832;9.126;2023-03-19T05:37:03;4.50;;;3.03;;
19107;SDS011;9686;48.832;9.126;2023-03-19T05:39:28;6.30;;;3.53;;
19107;SDS011;9686;48.832;9.126;2023-03-19T05:41:54;3.47;;;3.10;;
19107;SDS011;9686;48.832;9.126;2023-03-19T05:44:19;4.93;;;3.03;;
19107;SDS011;9686;48.832;9.126;2023-03-19T05:46:45;4.00;;;3.23;;
19107;SDS011;9686;48.832;9.126;2023-03-19T05:49:11;4.00;;;3.60;;
19107;SDS011;9686;48.832;9.126;2023-03-19T05:51:36;6.30;;;3.50;;
19107;SDS011;9686;48.832;9.126;2023-03-19T05:54:01;3.83;;;3.40;;
19107;SDS011;9686;48.832;9.126;2023-03-19T05:56:27;5.50;;;3.80;;
19107;SDS011;9686;48.832;9.126;2023-03-19T05:58:53;5.30;;;3.80;;
19107;SDS011;9686;48.832;9.126;2023-03-19T06:01:19;5.50;;;3.67;;
19107;SDS011;9686;48.832;9.126;2023-03-19T06:03:44;5.23;;;3.57;;
19107;SDS011;9686;48.832;9.126;2023-03-19T06:06:10;4.37;;;3.40;;
19107;SDS011;9686;48.832;9.126;2023-03-19T06:08:36;5.53;;;4.10;;
19107;SDS011;9686;48.832;9.126;2023-03-19T06:11:01;7.07;;;3.90;;
19107;SDS011;9686;48.832;9.126;2023-03-19T06:13:26;3.67;;;3.37;;
19107;SDS011;9686;48.832;9.126;2023-03-19T06:15:52;5.87;;;3.93;;
19107;SDS011;9686;48.832;9.126;2023-03-19T06:18:17;7.10;;;3.50;;
19107;SDS011;9686;48.832;9.126;2023-03-19T06:20:42;4.40;;;3.53;;
19107;SDS011;9686;48.832;9.126;2023-03-19T06:23:09;4.33;;;3.53;;
19107;SDS011;9686;48.832;9.126;2023-03-19T06:25:35;4.20;;;3.40;;
19107;SDS011;9686;48.832;9.126;2023-03-19T06:28:01;5.70;;;3.77;;
19107;SDS011;9686;48.832;9.126;2023-03-19T06:30:26;4.47;;;3.37;;
19107;SDS011;9686;48.832;9.126;2023-03-19T06:32:52;6.30;;;3.43;;
19107;SDS011;9686;48.832;9.126;2023-03-19T06:35:17;4.80;;;3.43;;
19107;SDS011;9686;48.832;9.126;2023-03-19T06:37:42;5.73;;;3.57;;
19107;SDS011;9686;48.832;9.126;2023-03-19T06:40:08;3.83;;;3.07;;
19107;SDS011;9686;48.832;9.126;2023-03-19T06:42:34;6.07;;;3.43;;
19107;SDS011;9686;48.832;9.126;2023-03-19T06:44:59;4.07;;;3.00;;
19107;SDS011;9686;48.832;9.126;2023-03-19T06:47:25;3.23;;;2.93;;
19107;SDS011;9686;48.832;9.126;2023-03-19T06:49:50;4.43;;;3.27;;
19107;SDS011;9686;48.832;9.126;2023-03-19T06:52:16;4.93;;;3.10;;
19107;SDS011;9686;48.832;9.126;2023-03-19T06:54:41;5.17;;;3.27;;
19107;SDS011;9686;48.832;9.126;2023-03-19T06:57:06;4.33;;;3.30;;
19107;SDS011;9686;48.832;9.126;2023-03-19T06:59:32;3.43;;;3.07;;
19107;SDS011;9686;48.832;9.126;2023-03-19T07:01:57;4.00;;;3.57;;
19107;SDS011;9686;48.832;9.126;2023-03-19T07:04:22;5.17;;;2.90;;
19107;SDS011;9686;48.832;9.126;2023-03-19T07:06:48;7.03;;;3.30;;
19107;SDS011;9686;48.832;9.126;2023-03-19T07:09:13;4.77;;;3.27;;
19107;SDS011;9686;48.832;9.126;2023-03-19T07:11:38;4.33;;;2.97;;
19107;SDS011;9686;48.832;9.126;2023-03-19T07:14:04;3.83;;;3.40;;
19107;SDS011;9686;48.832;9.126;2023-03-19T07:16:29;5.03;;;3.27;;
19107;SDS011;9686;48.832;9.126;2023-03-19T07:18:54;4.83;;;2.97;;
19107;SDS011;9686;48.832;9.126;2023-03-19T07:21:20;4.20;;;2.43;;
19107;SDS011;9686;48.832;9.126;2023-03-19T07:23:46;4.53;;;2.67;;
19107;SDS011;9686;48.832;9.126;2023-03-19T07:26:11;2.57;;;2.33;;
19107;SDS011;9686;48.832;9.126;2023-03-19T07:28:37;3.00;;;2.20;;
19107;SDS011;9686;48.832;9.126;2023-03-19T07:31:02;4.53;;;2.37;;
19107;SDS011;9686;48.832;9.126;2023-03-19T07:33:28;3.23;;;2.93;;
19107;SDS011;9686;48.832;9.126;2023-03-19T07:35:53;3.50;;;2.40;;
19107;SDS011;9686;48.832;9.126;2023-03-19T07:38:18;5.23;;;2.70;;
19107;SDS011;9686;48.832;9.126;2023-03-19T07:40:44;2.33;;;2.13;;
19107;SDS011;9686;48.832;9.126;2023-03-19T07:43:09;4.57;;;2.13;;
19107;SDS011;9686;48.832;9.126;2023-03-19T07:45:34;6.60;;;2.57;;
19107;SDS011;9686;48.832;9.126;2023-03-19T07:48:00;3.27;;;2.07;;
19107;SDS011;9686;48.832;9.126;2023-03-19T07:50:28;4.77;;;2.50;;
19107;SDS011;9686;48.832;9.126;2023-03-19T07:52:55;2.60;;;1.93;;
19107;SDS011;9686;48.832;9.126;2023-03-19T07:55:21;3.00;;;1.93;;
19107;SDS011;9686;48.832;9.126;2023-03-19T07:57:47;3.43;;;2.20;;
19107;SDS011;9686;48.832;9.126;2023-03-19T08:00:12;3.80;;;2.30;;
19107;SDS011;9686;48.832;9.126;2023-03-19T08:02:38;4.63;;;2.17;;
19107;SDS011;9686;48.832;9.126;2023-03-19T08:05:04;2.40;;;2.13;;
19107;SDS011;9686;48.832;9.126;2023-03-19T08:07:30;4.17;;;1.93;;
19107;SDS011;9686;48.832;9.126;2023-03-19T08:09:56;3.47;;;2.13;;
19107;SDS011;9686;48.832;9.126;2023-03-19T08:12:22;3.53;;;2.10;;
19107;SDS011;9686;48.832;9.126;2023-03-19T08:14:48;3.77;;;1.90;;
19107;SDS011;9686;48.832;9.126;2023-03-19T08:17:13;3.23;;;2.10;;
19107;SDS011;9686;48.832;9.126;2023-03-19T08:19:38;5.70;;;2.10;;
19107;SDS011;9686;48.832;9.126;2023-03-19T08:22:03;3.10;;;2.20;;
19107;SDS011;9686;48.832;9.126;2023-03-19T08:24:29;2.30;;;2.00;;
19107;SDS011;9686;48.832;9.126;2023-03-19T08:26:54;4.30;;;1.83;;
19107;SDS011;9686;48.832;9.126;2023-03-19T08:29:20;4.60;;;1.60;;
19107;SDS011;9686;48.832;9.126;2023-03-19T08:31:45;6.47;;;2.13;;
19107;SDS011;9686;48.832;9.126;2023-03-19T08:34:11;2.97;;;1.90;;
19107;SDS011;9686;48.832;9.126;2023-03-19T08:36:36;2.10;;;1.60;;
19107;SDS011;9686;48.832;9.126;2023-03-19T08:39:01;2.97;;;1.73;;
19107;SDS011;9686;48.832;9.126;2023-03-19T08:41:28;3.83;;;2.00;;
19107;SDS011;9686;48.832;9.126;2023-03-19T08:43:53;2.67;;;1.93;;
19107;SDS011;9686;48.832;9.126;2023-03-19T08:46:19;2.13;;;1.63;;
19107;SDS011;9686;48.832;9.126;2023-03-19T08:48:44;3.07;;;1.80;;
19107;SDS011;9686;48.832;9.126;2023-03-19T08:51:10;4.40;;;2.00;;
19107;SDS011;9686;48.832;9.126;2023-03-19T08:53:36;3.33;;;1.60;;
19107;SDS011;9686;48.832;9.126;2023-03-19T08:56:03;3.83;;;1.97;;
19107;SDS011;9686;48.832;9.126;2023-03-19T08:58:30;3.60;;;1.70;;
19107;SDS011;9686;48.832;9.126;2023-03-19T09:01:06;3.13;;;1.97;;
19107;SDS011;9686;48.832;9.126;2023-03-19T09:03:34;2.53;;;1.50;;
19107;SDS011;9686;48.832;9.126;2023-03-19T09:06:00;2.37;;;1.50;;
19107;SDS011;9686;48.832;9.126;2023-03-19T09:08:27;2.87;;;1.80;;
19107;SDS011;9686;48.832;9.126;2023-03-19T09:10:53;3.87;;;1.63;;
19107;SDS011;9686;48.832;9.126;2023-03-19T09:13:19;2.07;;;1.40;;
19107;SDS011;9686;48.832;9.126;2023-03-19T09:15:45;5.23;;;1.67;;
19107;SDS011;9686;48.832;9.126;2023-03-19T09:18:10;4.07;;;1.60;;
19107;SDS011;9686;48.832;9.126;2023-03-19T09:20:35;2.70;;;1.53;;
19107;SDS011;9686;48.832;9.126;2023-03-19T09:23:01;2.87;;;1.70;;
19107;SDS011;9686;48.832;9.126;2023-03-19T09:25:26;2.20;;;1.57;;
19107;SDS011;9686;48.832;9.126;2023-03-19T09:27:51;2.27;;;1.40;;
19107;SDS011;9686;48.832;9.126;2023-03-19T09:30:17;4.30;;;1.40;;
19107;SDS011;9686;48.832;9.126;2023-03-19T09:32:42;4.30;;;1.57;;
19107;SDS011;9686;48.832;9.126;2023-03-19T09:35:08;3.47;;;1.93;;
19107;SDS011;9686;48.832;9.126;2023-03-19T09:37:33;1.83;;;1.50;;
19107;SDS011;9686;48.832;9.126;2023-03-19T09:39:58;3.13;;;1.53;;
19107;SDS011;9686;48.832;9.126;2023-03-19T09:45:16;2.00;;;1.50;;
19107;SDS011;9686;48.832;9.126;2023-03-19T09:47:43;3.50;;;1.40;;
19107;SDS011;9686;48.832;9.126;2023-03-19T09:50:15;1.50;;;1.30;;
19107;SDS011;9686;48.832;9.126;2023-03-19T09:52:46;1.83;;;1.30;;
19107;SDS011;9686;48.832;9.126;2023-03-19T09:57:52;3.50;;;1.83;;
19107;SDS011;9686;48.832;9.126;2023-03-19T10:02:52;2.57;;;1.50;;
19107;SDS011;9686;48.832;9.126;2023-03-19T10:13:29;2.17;;;1.50;;
19107;SDS011;9686;48.832;9.126;2023-03-19T10:16:28;2.83;;;1.33;;
19107;SDS011;9686;48.832;9.126;2023-03-19T10:18:56;2.10;;;1.33;;
19107;SDS011;9686;48.832;9.126;2023-03-19T10:21:36;2.00;;;1.80;;
19107;SDS011;9686;48.832;9.126;2023-03-19T10:26:43;2.93;;;1.37;;
19107;SDS011;9686;48.832;9.126;2023-03-19T10:29:18;3.80;;;1.60;;
19107;SDS011;9686;48.832;9.126;2023-03-19T10:31:55;2.50;;;1.30;;
19107;SDS011;9686;48.832;9.126;2023-03-19T10:34:36;3.03;;;1.50;;
19107;SDS011;9686;48.832;9.126;2023-03-19T10:37:14;3.47;;;1.27;;
19107;SDS011;9686;48.832;9.126;2023-03-19T10:39:44;1.73;;;1.20;;
19107;SDS011;9686;48.832;9.126;2023-03-19T10:45:09;4.03;;;1.80;;
19107;SDS011;9686;48.832;9.126;2023-03-19T10:47:44;2.57;;;1.53;;
19107;SDS011;9686;48.832;9.126;2023-03-19T10:50:14;1.57;;;1.20;;
19107;SDS011;9686;48.832;9.126;2023-03-19T10:52:44;2.70;;;1.30;;
19107;SDS011;9686;48.832;9.126;2023-03-19T10:55:17;2.63;;;1.57;;
19107;SDS011;9686;48.832;9.126;2023-03-19T10:57:48;2.17;;;1.40;;
19107;SDS011;9686;48.832;9.126;2023-03-19T11:00:19;3.90;;;1.73;;
19107;SDS011;9686;48.832;9.126;2023-03-19T11:02:50;2.40;;;1.23;;
19107;SDS011;9686;48.832;9.126;2023-03-19T11:07:54;3.30;;;1.87;;
19107;SDS011;9686;48.832;9.126;2023-03-19T11:10:25;1.67;;;1.43;;
19107;SDS011;9686;48.832;9.126;2023-03-19T11:12:54;6.97;;;3.40;;
19107;SDS011;9686;48.832;9.126;2023-03-19T11:15:22;3.50;;;2.77;;
19107;SDS011;9686;48.832;9.126;2023-03-19T11:17:56;3.30;;;1.70;;
19107;SDS011;9686;48.832;9.126;2023-03-19T11:20:34;2.00;;;1.47;;
19107;SDS011;9686;48.832;9.126;2023-03-19T11:23:01;1.67;;;1.30;;
19107;SDS011;9686;48.832;9.126;2023-03-19T11:25:38;3.57;;;1.73;;
19107;SDS011;9686;48.832;9.126;2023-03-19T11:33:38;3.43;;;1.60;;
19107;SDS011;9686;48.832;9.126;2023-03-19T11:39:55;3.00;;;2.20;;
19107;SDS011;9686;48.832;9.126;2023-03-19T11:44:44;2.03;;;1.47;;
19107;SDS011;9686;48.832;9.126;2023-03-19T11:47:25;3.80;;;1.60;;
19107;SDS011;9686;48.832;9.126;2023-03-19T11:50:34;2.53;;;1.83;;
19107;SDS011;9686;48.832;9.126;2023-03-19T11:55:55;3.93;;;1.70;;
19107;SDS011;9686;48.832;9.126;2023-03-19T12:01:29;3.47;;;2.23;;
19107;SDS011;9686;48.832;9.126;2023-03-19T12:04:39;5.47;;;1.73;;
19107;SDS011;9686;48.832;9.126;2023-03-19T12:13:10;2.10;;;1.60;;
19107;SDS011;9686;48.832;9.126;2023-03-19T12:21:42;2.83;;;1.70;;
19107;SDS011;9686;48.832;9.126;2023-03-19T12:32:19;2.53;;;1.40;;
19107;SDS011;9686;48.832;9.126;2023-03-19T12:34:57;3.97;;;1.60;;
19107;SDS011;9686;48.832;9.126;2023-03-19T12:38:12;5.00;;;1.70;;
19107;SDS011;9686;48.832;9.126;2023-03-19T12:40:28;2.87;;;1.80;;
19107;SDS011;9686;48.832;9.126;2023-03-19T12:43:01;3.03;;;1.57;;
19107;SDS011;9686;48.832;9.126;2023-03-19T12:45:34;5.33;;;1.80;;
19107;SDS011;9686;48.832;9.126;2023-03-19T12:48:06;2.57;;;1.53;;
19107;SDS011;9686;48.832;9.126;2023-03-19T12:50:38;3.20;;;1.70;;
19107;SDS011;9686;48.832;9.126;2023-03-19T12:53:10;2.60;;;1.20;;
19107;SDS011;9686;48.832;9.126;2023-03-19T12:55:44;2.60;;;1.70;;
19107;SDS011;9686;48.832;9.126;2023-03-19T12:58:23;2.70;;;1.23;;
19107;SDS011;9686;48.832;9.126;2023-03-19T13:01:02;1.73;;;1.37;;
19107;SDS011;9686;48.832;9.126;2023-03-19T13:06:19;2.40;;;1.23;;
19107;SDS011;9686;48.832;9.126;2023-03-19T13:11:38;1.90;;;1.40;;
19107;SDS011;9686;48.832;9.126;2023-03-19T13:14:47;1.73;;;1.20;;
19107;SDS011;9686;48.832;9.126;2023-03-19T13:19:49;2.43;;;1.50;;
19107;SDS011;9686;48.832;9.126;2023-03-19T13:22:21;3.63;;;1.80;;
19107;SDS011;9686;48.832;9.126;2023-03-19T13:24:52;2.37;;;1.70;;
19107;SDS011;9686;48.832;9.126;2023-03-19T13:35:20;4.07;;;2.25;;
19107;SDS011;9686;48.832;9.126;2023-03-19T13:37:55;3.13;;;2.33;;
19107;SDS011;9686;48.832;9.126;2023-03-19T13:40:39;7.63;;;2.17;;
19107;SDS011;9686;48.832;9.126;2023-03-19T14:02:00;3.87;;;2.03;;
19107;SDS011;9686;48.832;9.126;2023-03-19T14:04:56;4.00;;;2.13;;
19107;SDS011;9686;48.832;9.126;2023-03-19T14:07:26;3.97;;;1.97;;
19107;SDS011;9686;48.832;9.126;2023-03-19T14:12:39;3.40;;;1.83;;
19107;SDS011;9686;48.832;9.126;2023-03-19T14:17:32;4.87;;;1.80;;
19107;SDS011;9686;48.832;9.126;2023-03-19T14:20:21;3.93;;;1.80;;
19107;SDS011;9686;48.832;9.126;2023-03-19T14:22:53;2.90;;;1.90;;
19107;SDS011;9686;48.832;9.126;2023-03-19T14:25:51;2.00;;;1.50;;
19107;SDS011;9686;48.832;9.126;2023-03-19T14:28:31;3.77;;;2.07;;
19107;SDS011;9686;48.832;9.126;2023-03-19T14:30:57;2.47;;;1.87;;
19107;SDS011;9686;48.832;9.126;2023-03-19T14:36:18;3.03;;;1.80;;
19107;SDS011;9686;48.832;9.126;2023-03-19T14:38:51;4.03;;;1.57;;
19107;SDS011;9686;48.832;9.126;2023-03-19T14:41:21;2.53;;;1.40;;
19107;SDS011;9686;48.832;9.126;2023-03-19T14:47:00;3.27;;;1.47;;
19107;SDS011;9686;48.832;9.126;2023-03-19T14:52:59;1.40;;;1.30;;
19107;SDS011;9686;48.832;9.126;2023-03-19T14:55:32;2.67;;;1.50;;
19107;SDS011;9686;48.832;9.126;2023-03-19T14:58:00;4.73;;;1.57;;
19107;SDS011;9686;48.832;9.126;2023-03-19T15:00:25;1.73;;;1.37;;
19107;SDS011;9686;48.832;9.126;2023-03-19T15:02:51;1.40;;;1.17;;
19107;SDS011;9686;48.832;9.126;2023-03-19T15:07:48;2.17;;;1.27;;
19107;SDS011;9686;48.832;9.126;2023-03-19T15:10:18;1.53;;;1.10;;
19107;SDS011;9686;48.832;9.126;2023-03-19T15:18:34;3.00;;;1.30;;
19107;SDS011;9686;48.832;9.126;2023-03-19T15:21:01;3.10;;;1.13;;
19107;SDS011;9686;48.832;9.126;2023-03-19T15:23:27;2.13;;;1.30;;
19107;SDS011;9686;48.832;9.126;2023-03-19T15:25:54;2.47;;;1.33;;
19107;SDS011;9686;48.832;9.126;2023-03-19T15:28:21;3.07;;;1.57;;
19107;SDS011;9686;48.832;9.126;2023-03-19T15:30:55;1.40;;;1.17;;
19107;SDS011;9686;48.832;9.126;2023-03-19T15:33:23;3.77;;;1.40;;
19107;SDS011;9686;48.832;9.126;2023-03-19T15:35:59;2.97;;;1.60;;
19107;SDS011;9686;48.832;9.126;2023-03-19T15:38:30;1.90;;;1.40;;
19107;SDS011;9686;48.832;9.126;2023-03-19T15:41:01;2.63;;;1.60;;
19107;SDS011;9686;48.832;9.126;2023-03-19T15:43:28;6.80;;;1.60;;
19107;SDS011;9686;48.832;9.126;2023-03-19T15:45:55;1.57;;;1.47;;
19107;SDS011;9686;48.832;9.126;2023-03-19T15:48:21;2.03;;;1.70;;
19107;SDS011;9686;48.832;9.126;2023-03-19T15:50:54;3.43;;;2.00;;
19107;SDS011;9686;48.832;9.126;2023-03-19T15:53:23;3.57;;;1.90;;
19107;SDS011;9686;48.832;9.126;2023-03-19T15:55:52;3.13;;;2.07;;
19107;SDS011;9686;48.832;9.126;2023-03-19T15:58:23;1.90;;;1.37;;
19107;SDS011;9686;48.832;9.126;2023-03-19T16:00:52;3.00;;;1.50;;
19107;SDS011;9686;48.832;9.126;2023-03-19T16:03:19;4.07;;;2.20;;
19107;SDS011;9686;48.832;9.126;2023-03-19T16:05:59;4.03;;;1.97;;
19107;SDS011;9686;48.832;9.126;2023-03-19T16:08:26;3.97;;;2.10;;
19107;SDS011;9686;48.832;9.126;2023-03-19T16:10:53;3.27;;;2.27;;
19107;SDS011;9686;48.832;9.126;2023-03-19T16:15:53;2.53;;;2.00;;
19107;SDS011;9686;48.832;9.126;2023-03-19T16:18:21;2.80;;;1.90;;
19107;SDS011;9686;48.832;9.126;2023-03-19T16:21:07;4.80;;;2.17;;
19107;SDS011;9686;48.832;9.126;2023-03-19T16:23:48;2.83;;;2.00;;
19107;SDS011;9686;48.832;9.126;2023-03-19T16:26:38;4.37;;;2.23;;
19107;SDS011;9686;48.832;9.126;2023-03-19T16:29:25;3.17;;;1.90;;
19107;SDS011;9686;48.832;9.126;2023-03-19T16:32:02;2.03;;;1.43;;
19107;SDS011;9686;48.832;9.126;2023-03-19T16:47:38;1.40;;;1.30;;
19107;SDS011;9686;48.832;9.126;2023-03-19T16:50:03;1.83;;;1.20;;
19107;SDS011;9686;48.832;9.126;2023-03-19T16:52:29;2.83;;;1.30;;
19107;SDS011;9686;48.832;9.126;2023-03-19T16:54:54;2.20;;;1.23;;
19107;SDS011;9686;48.832;9.126;2023-03-19T16:57:22;1.40;;;1.30;;
19107;SDS011;9686;48.832;9.126;2023-03-19T16:59:47;1.97;;;1.33;;
19107;SDS011;9686;48.832;9.126;2023-03-19T17:02:13;1.43;;;1.20;;
19107;SDS011;9686;48.832;9.126;2023-03-19T17:04:40;1.90;;;1.20;;
19107;SDS011;9686;48.832;9.126;2023-03-19T17:07:06;2.07;;;1.47;;
19107;SDS011;9686;48.832;9.126;2023-03-19T17:09:32;2.07;;;1.30;;
19107;SDS011;9686;48.832;9.126;2023-03-19T17:11:58;1.70;;;1.60;;
19107;SDS011;9686;48.832;9.126;2023-03-19T17:14:25;1.37;;;1.27;;
19107;SDS011;9686;48.832;9.126;2023-03-19T17:16:50;1.60;;;1.20;;
19107;SDS011;9686;48.832;9.126;2023-03-19T17:19:17;1.30;;;1.10;;
19107;SDS011;9686;48.832;9.126;2023-03-19T17:21:45;3.00;;;1.60;;
19107;SDS011;9686;48.832;9.126;2023-03-19T17:24:26;2.37;;;1.10;;
19107;SDS011;9686;48.832;9.126;2023-03-19T17:26:53;1.20;;;1.10;;
19107;SDS011;9686;48.832;9.126;2023-03-19T17:29:20;1.57;;;1.13;;
19107;SDS011;9686;48.832;9.126;2023-03-19T17:31:47;1.80;;;1.17;;
19107;SDS011;9686;48.832;9.126;2023-03-19T17:34:18;1.40;;;1.30;;